Time;durP1;ratioP1;P1;durP2;ratioP2;P2;SDS_P1;SDS_P2;PMS_P1;PMS_P2;Temp;Humidity;BMP_temperature;BMP_pressure;BME280_temperature;BME280_humidity;BME280_pressure;Samples;Min_cycle;Max_cycle;Signal;HPM_P1;HPM_P2
2022/05/24 00:02:05;;;;;;;15.82;10.60;;;;;;;;;;5086896;28;20177;-74
2022/05/24 00:04:31;;;;;;;14.25;10.55;;;;;;;;;;5101987;28;20089;-75
2022/05/24 00:06:58;;;;;;;18.00;11.25;;;;;;;;;;5111770;28;20495;-74
2022/05/24 00:09:25;;;;;;;16.00;11.52;;;;;;;;;;5094444;28;20035;-74
2022/05/24 00:11:51;;;;;;;18.05;12.18;;;;;;;;;;5103891;28;20569;-74
2022/05/24 00:15:19;;;;;;;16.88;12.13;;;;;;;;;;5101144;28;20081;-74
2022/05/24 00:17:03;;;;;;;17.95;12.45;;;;;;;;;;5093987;28;20127;-73
2022/05/24 00:19:30;;;;;;;19.05;12.60;;;;;;;;;;5105700;28;20438;-73
2022/05/24 00:21:56;;;;;;;17.98;12.05;;;;;;;;;;5099665;28;20069;-73
2022/05/24 00:24:22;;;;;;;18.77;12.57;;;;;;;;;;5097584;28;20036;-74
2022/05/24 00:26:48;;;;;;;14.90;12.88;;;;;;;;;;5107000;28;20044;-73
2022/05/24 00:29:14;;;;;;;18.02;13.30;;;;;;;;;;5094603;28;20298;-73
2022/05/24 00:31:40;;;;;;;17.63;12.93;;;;;;;;;;5101898;28;20040;-74
2022/05/24 00:34:07;;;;;;;17.42;13.05;;;;;;;;;;5102271;28;20035;-73
2022/05/24 00:36:33;;;;;;;14.45;11.18;;;;;;;;;;5093751;28;20055;-73
2022/05/24 00:38:59;;;;;;;14.43;11.40;;;;;;;;;;5077872;28;20051;-73
2022/05/24 00:41:32;;;;;;;16.88;11.82;;;;;;;;;;5109984;28;20096;-73
2022/05/24 00:44:05;;;;;;;18.50;11.82;;;;;;;;;;5095335;28;20071;-73
2022/05/24 00:46:47;;;;;;;16.40;11.80;;;;;;;;;;5103810;28;20087;-73
2022/05/24 00:49:15;;;;;;;14.20;10.52;;;;;;;;;;5089988;28;20036;-73
2022/05/24 00:51:47;;;;;;;12.50;9.95;;;;;;;;;;5083814;28;20074;-73
2022/05/24 00:54:14;;;;;;;14.82;10.60;;;;;;;;;;5076937;28;20044;-73
2022/05/24 00:56:49;;;;;;;15.73;10.90;;;;;;;;;;5106101;28;20174;-73
2022/05/24 00:59:21;;;;;;;13.25;10.13;;;;;;;;;;5098364;28;20059;-73
2022/05/24 01:01:47;;;;;;;14.30;9.48;;;;;;;;;;5096700;28;20159;-72
2022/05/24 01:04:16;;;;;;;14.65;10.18;;;;;;;;;;5106361;28;20075;-73
2022/05/24 01:06:43;;;;;;;15.43;9.98;;;;;;;;;;5094389;28;20079;-72
2022/05/24 01:09:15;;;;;;;12.70;9.32;;;;;;;;;;5100222;28;20051;-73
2022/05/24 01:11:43;;;;;;;14.73;9.60;;;;;;;;;;5103426;28;20078;-72
2022/05/24 01:14:10;;;;;;;14.40;9.50;;;;;;;;;;5092824;28;20108;-73
2022/05/24 01:16:36;;;;;;;15.05;10.52;;;;;;;;;;5103705;28;20040;-72
2022/05/24 01:19:05;;;;;;;15.52;9.45;;;;;;;;;;5098717;28;20089;-73
2022/05/24 01:21:31;;;;;;;15.05;11.10;;;;;;;;;;5078748;28;20443;-73
2022/05/24 01:23:57;;;;;;;17.95;11.00;;;;;;;;;;5105477;28;20044;-73
2022/05/24 01:26:42;;;;;;;16.45;11.10;;;;;;;;;;5077330;28;20040;-73
2022/05/24 01:29:08;;;;;;;;;;;;;;;;;;5097359;28;20040;-72
2022/05/24 01:37:06;;;;;;;16.25;11.65;;;;;;;;;;5096234;28;20059;-73
2022/05/24 01:39:33;;;;;;;15.93;10.93;;;;;;;;;;5105023;28;20417;-73
2022/05/24 01:41:59;;;;;;;19.52;11.60;;;;;;;;;;5093062;28;20070;-73
2022/05/24 01:44:48;;;;;;;14.43;11.00;;;;;;;;;;5083560;28;20043;-73
2022/05/24 01:47:15;;;;;;;17.65;11.68;;;;;;;;;;5104075;28;20131;-73
2022/05/24 01:49:43;;;;;;;15.95;11.20;;;;;;;;;;5092324;28;20631;-73
2022/05/24 01:52:16;;;;;;;15.80;11.75;;;;;;;;;;5097501;28;20047;-73
2022/05/24 01:54:45;;;;;;;20.30;12.45;;;;;;;;;;5080422;28;20491;-73
2022/05/24 01:57:14;;;;;;;17.75;11.85;;;;;;;;;;5104368;28;20090;-73
2022/05/24 01:59:41;;;;;;;15.88;10.43;;;;;;;;;;5076474;28;20118;-73
2022/05/24 02:02:07;;;;;;;15.18;11.38;;;;;;;;;;5083674;28;20040;-73
2022/05/24 02:04:34;;;;;;;15.30;10.38;;;;;;;;;;5100352;28;20043;-73
2022/05/24 02:07:08;;;;;;;17.13;10.50;;;;;;;;;;5087256;28;20506;-73
2022/05/24 02:09:37;;;;;;;15.68;11.15;;;;;;;;;;5107531;27;20043;-73
2022/05/24 02:12:06;;;;;;;16.40;11.13;;;;;;;;;;5101231;28;20063;-72
2022/05/24 02:14:34;;;;;;;14.43;10.27;;;;;;;;;;5086398;28;20050;-73
2022/05/24 02:17:09;;;;;;;16.35;9.90;;;;;;;;;;5092757;28;20051;-72
2022/05/24 02:19:38;;;;;;;13.77;10.23;;;;;;;;;;5095905;28;20088;-72
2022/05/24 02:22:08;;;;;;;13.45;9.40;;;;;;;;;;5099597;28;20040;-73
2022/05/24 02:24:34;;;;;;;14.73;8.93;;;;;;;;;;5104771;28;20038;-73
2022/05/24 02:27:01;;;;;;;13.38;9.00;;;;;;;;;;5093204;28;20032;-73
2022/05/24 02:29:27;;;;;;;12.80;9.10;;;;;;;;;;5109873;28;20039;-73
2022/05/24 02:31:53;;;;;;;14.88;9.23;;;;;;;;;;5109926;28;20062;-72
2022/05/24 02:34:19;;;;;;;15.52;9.88;;;;;;;;;;5109994;28;20455;-72
2022/05/24 02:36:45;;;;;;;16.23;9.98;;;;;;;;;;5091314;28;20059;-72
2022/05/24 02:39:12;;;;;;;12.57;9.10;;;;;;;;;;5088151;28;20047;-73
2022/05/24 02:41:38;;;;;;;13.85;9.98;;;;;;;;;;5087985;28;20266;-73
2022/05/24 02:44:09;;;;;;;14.38;10.25;;;;;;;;;;5101423;28;20040;-73
2022/05/24 02:46:36;;;;;;;15.48;10.77;;;;;;;;;;5085530;28;20040;-73
2022/05/24 02:49:03;;;;;;;17.45;12.40;;;;;;;;;;5093072;28;20036;-73
2022/05/24 02:51:29;;;;;;;20.23;13.80;;;;;;;;;;5080900;28;20399;-73
2022/05/24 02:53:56;;;;;;;22.30;13.32;;;;;;;;;;5101156;28;20115;-73
2022/05/24 02:56:22;;;;;;;20.45;15.13;;;;;;;;;;5091376;28;20070;-73
2022/05/24 02:58:49;;;;;;;19.42;13.55;;;;;;;;;;5102815;28;20067;-73
2022/05/24 03:01:23;;;;;;;21.90;16.10;;;;;;;;;;5096764;28;20629;-73
2022/05/24 03:03:50;;;;;;;24.23;16.23;;;;;;;;;;5093490;28;20573;-73
2022/05/24 03:06:16;;;;;;;21.77;16.40;;;;;;;;;;5103833;28;20397;-73
2022/05/24 03:11:27;;;;;;;;;;;;;;;;;;5100219;28;20567;-73
2022/05/24 03:16:38;;;;;;;25.60;18.98;;;;;;;;;;5093522;28;20044;-73
2022/05/24 03:19:05;;;;;;;26.90;19.77;;;;;;;;;;5097098;28;20048;-73
2022/05/24 03:21:31;;;;;;;24.23;19.10;;;;;;;;;;5084426;28;20047;-73
2022/05/24 03:23:58;;;;;;;33.45;20.58;;;;;;;;;;5105627;28;20062;-73
2022/05/24 03:26:24;;;;;;;31.80;22.65;;;;;;;;;;5092646;28;20054;-73
2022/05/24 03:28:50;;;;;;;27.92;20.15;;;;;;;;;;5097618;28;20047;-73
2022/05/24 03:31:16;;;;;;;29.80;21.38;;;;;;;;;;5087470;28;20488;-73
2022/05/24 03:33:42;;;;;;;30.02;21.98;;;;;;;;;;5103514;28;20402;-73
2022/05/24 03:36:09;;;;;;;30.98;21.52;;;;;;;;;;5092357;28;20135;-72
2022/05/24 03:38:35;;;;;;;39.22;26.00;;;;;;;;;;5098223;28;20044;-73
2022/05/24 03:41:01;;;;;;;43.30;26.15;;;;;;;;;;5099736;28;20047;-73
2022/05/24 03:43:28;;;;;;;42.42;25.83;;;;;;;;;;5090527;28;20040;-73
2022/05/24 03:46:05;;;;;;;46.45;27.80;;;;;;;;;;5102663;28;20040;-73
2022/05/24 03:48:31;;;;;;;42.05;28.15;;;;;;;;;;5096791;28;20486;-73
2022/05/24 03:50:57;;;;;;;47.78;30.95;;;;;;;;;;5093477;28;20044;-73
2022/05/24 03:53:24;;;;;;;44.00;28.52;;;;;;;;;;5103490;28;20471;-73
2022/05/24 03:55:51;;;;;;;38.80;27.63;;;;;;;;;;5091837;28;20067;-73
2022/05/24 03:58:18;;;;;;;48.53;30.27;;;;;;;;;;5097882;28;20047;-73
2022/05/24 04:00:44;;;;;;;49.55;30.02;;;;;;;;;;5100113;28;20511;-73
2022/05/24 04:03:10;;;;;;;52.78;31.85;;;;;;;;;;5091633;28;20131;-73
2022/05/24 04:05:37;;;;;;;43.08;29.80;;;;;;;;;;5107487;28;20126;-72
2022/05/24 04:08:03;;;;;;;52.20;32.67;;;;;;;;;;5098961;28;20039;-73
2022/05/24 04:10:30;;;;;;;52.22;33.35;;;;;;;;;;5098040;28;20085;-73
2022/05/24 04:12:57;;;;;;;49.25;32.22;;;;;;;;;;5099963;28;20491;-73
2022/05/24 04:15:23;;;;;;;51.88;33.13;;;;;;;;;;5083093;28;20126;-73
2022/05/24 04:17:51;;;;;;;47.85;32.67;;;;;;;;;;5070389;28;20040;-72
2022/05/24 04:20:17;;;;;;;47.75;32.28;;;;;;;;;;5095602;28;20400;-73
2022/05/24 04:22:44;;;;;;;44.83;32.80;;;;;;;;;;5070462;28;20044;-73
2022/05/24 04:25:10;;;;;;;51.08;33.67;;;;;;;;;;5107519;28;20044;-73
2022/05/24 04:27:37;;;;;;;48.80;33.67;;;;;;;;;;5090285;28;20502;-73
2022/05/24 04:30:04;;;;;;;48.92;33.25;;;;;;;;;;5101721;28;20172;-73
2022/05/24 04:32:36;;;;;;;42.00;31.02;;;;;;;;;;5094744;28;20048;-73
2022/05/24 04:35:03;;;;;;;48.33;32.33;;;;;;;;;;5095162;28;20082;-72
2022/05/24 04:37:29;;;;;;;43.38;31.08;;;;;;;;;;5099755;28;20675;-74
2022/05/24 04:39:55;;;;;;;42.85;31.25;;;;;;;;;;5098607;28;20384;-74
2022/05/24 04:42:24;;;;;;;46.80;32.40;;;;;;;;;;5105989;28;20040;-73
2022/05/24 04:45:01;;;;;;;47.15;31.42;;;;;;;;;;5083156;28;20215;-73
2022/05/24 04:47:29;;;;;;;43.55;30.25;;;;;;;;;;5097438;28;20465;-73
2022/05/24 04:49:56;;;;;;;42.20;29.73;;;;;;;;;;5096611;28;20040;-73
2022/05/24 04:52:23;;;;;;;38.90;28.95;;;;;;;;;;5106340;28;20067;-73
2022/05/24 04:54:50;;;;;;;43.05;30.05;;;;;;;;;;5094570;28;20032;-73
2022/05/24 04:57:16;;;;;;;41.25;29.38;;;;;;;;;;5101207;28;20040;-73
2022/05/24 04:59:43;;;;;;;41.75;28.40;;;;;;;;;;5103158;28;20038;-73
2022/05/24 05:02:09;;;;;;;37.35;26.27;;;;;;;;;;5093150;28;20040;-73
2022/05/24 05:04:36;;;;;;;37.88;27.08;;;;;;;;;;5100812;28;20217;-73
2022/05/24 05:07:03;;;;;;;35.95;24.50;;;;;;;;;;5082568;28;20492;-73
2022/05/24 05:09:34;;;;;;;39.22;26.65;;;;;;;;;;5076973;28;20089;-73
2022/05/24 05:12:08;;;;;;;38.75;27.30;;;;;;;;;;5087269;28;20040;-74
2022/05/24 05:14:34;;;;;;;36.47;26.05;;;;;;;;;;5088580;28;20031;-73
2022/05/24 05:17:00;;;;;;;36.55;26.02;;;;;;;;;;5097460;28;20454;-73
2022/05/24 05:19:28;;;;;;;38.63;25.50;;;;;;;;;;5108383;28;20044;-73
2022/05/24 05:21:54;;;;;;;43.15;26.08;;;;;;;;;;5092830;28;20044;-74
2022/05/24 05:24:20;;;;;;;32.60;22.85;;;;;;;;;;5106513;28;20498;-74
2022/05/24 05:26:47;;;;;;;33.55;24.55;;;;;;;;;;5100923;28;20048;-74
2022/05/24 05:29:13;;;;;;;34.95;24.00;;;;;;;;;;5102565;28;20058;-75
2022/05/24 05:31:39;;;;;;;37.47;23.90;;;;;;;;;;5074783;28;20036;-74
2022/05/24 05:34:06;;;;;;;35.55;24.02;;;;;;;;;;5104129;28;20028;-74
2022/05/24 05:36:32;;;;;;;33.15;23.30;;;;;;;;;;5097165;28;20059;-74
2022/05/24 05:38:59;;;;;;;38.45;24.58;;;;;;;;;;5088210;28;20503;-74
2022/05/24 05:41:29;;;;;;;38.00;26.63;;;;;;;;;;5097626;28;20043;-74
2022/05/24 05:43:56;;;;;;;40.53;26.63;;;;;;;;;;5077459;28;20291;-74
2022/05/24 05:46:22;;;;;;;35.63;25.65;;;;;;;;;;5100533;28;20484;-74
2022/05/24 05:48:48;;;;;;;40.60;28.35;;;;;;;;;;5101215;28;20136;-75
2022/05/24 05:51:15;;;;;;;39.35;28.17;;;;;;;;;;5092196;28;20119;-74
2022/05/24 05:53:42;;;;;;;40.03;28.40;;;;;;;;;;5073855;28;20040;-75
2022/05/24 05:56:09;;;;;;;34.13;24.63;;;;;;;;;;5074203;28;20047;-74
2022/05/24 05:58:35;;;;;;;31.17;22.70;;;;;;;;;;5081474;28;20047;-74
2022/05/24 06:01:02;;;;;;;34.22;23.17;;;;;;;;;;5088488;28;20039;-75
2022/05/24 06:03:28;;;;;;;34.40;22.25;;;;;;;;;;5078954;28;20055;-74
2022/05/24 06:05:54;;;;;;;30.83;22.80;;;;;;;;;;5078000;28;20440;-74
2022/05/24 06:08:21;;;;;;;31.25;21.33;;;;;;;;;;5087984;28;20046;-75
2022/05/24 06:10:47;;;;;;;35.45;23.55;;;;;;;;;;5103667;28;20209;-75
2022/05/24 06:13:13;;;;;;;34.38;23.23;;;;;;;;;;5092078;28;20561;-75
2022/05/24 06:15:40;;;;;;;36.60;22.73;;;;;;;;;;5082387;28;20295;-76
2022/05/24 06:18:06;;;;;;;35.28;24.00;;;;;;;;;;5086983;28;20040;-74
2022/05/24 06:20:33;;;;;;;30.45;22.23;;;;;;;;;;5102604;28;20035;-75
2022/05/24 06:22:59;;;;;;;31.92;22.83;;;;;;;;;;5088950;28;20043;-75
2022/05/24 06:25:27;;;;;;;29.83;21.38;;;;;;;;;;5087161;28;20032;-74
2022/05/24 06:27:53;;;;;;;35.03;22.02;;;;;;;;;;5087237;28;20043;-74
2022/05/24 06:30:21;;;;;;;32.30;21.33;;;;;;;;;;5101947;28;20054;-75
2022/05/24 06:32:47;;;;;;;33.10;20.80;;;;;;;;;;5087579;28;20043;-75
2022/05/24 06:35:14;;;;;;;32.25;20.05;;;;;;;;;;5073603;28;20047;-75
2022/05/24 06:37:41;;;;;;;28.55;19.10;;;;;;;;;;5097893;28;20060;-75
2022/05/24 06:40:08;;;;;;;26.63;19.60;;;;;;;;;;5088464;28;20479;-74
2022/05/24 06:42:40;;;;;;;27.73;18.30;;;;;;;;;;5089503;28;20035;-76
2022/05/24 06:45:08;;;;;;;26.90;17.95;;;;;;;;;;5101602;28;20032;-75
2022/05/24 06:47:34;;;;;;;28.55;18.95;;;;;;;;;;5098101;28;20106;-75
2022/05/24 06:50:08;;;;;;;29.00;18.83;;;;;;;;;;5093615;28;20036;-75
2022/05/24 06:52:34;;;;;;;27.08;18.20;;;;;;;;;;5088382;28;20043;-76
2022/05/24 06:55:00;;;;;;;29.65;19.52;;;;;;;;;;5101283;28;20040;-75
2022/05/24 06:57:26;;;;;;;26.83;17.75;;;;;;;;;;5098036;28;20039;-75
2022/05/24 07:02:37;;;;;;;26.88;17.45;;;;;;;;;;5071997;28;20048;-75
2022/05/24 07:05:07;;;;;;;26.58;17.83;;;;;;;;;;5076497;28;20036;-75
2022/05/24 07:07:34;;;;;;;30.20;17.92;;;;;;;;;;5100925;28;20084;-74
2022/05/24 07:10:01;;;;;;;24.90;18.33;;;;;;;;;;5068235;28;20518;-74
2022/05/24 07:12:28;;;;;;;27.42;18.17;;;;;;;;;;5089067;28;20050;-75
2022/05/24 07:14:54;;;;;;;24.25;17.55;;;;;;;;;;5086438;28;20051;-75
2022/05/24 07:17:21;;;;;;;25.73;15.70;;;;;;;;;;5101714;28;20089;-75
2022/05/24 07:19:48;;;;;;;33.15;18.50;;;;;;;;;;5108070;28;20040;-75
2022/05/24 07:22:14;;;;;;;27.50;17.00;;;;;;;;;;5088767;28;20036;-75
2022/05/24 07:24:45;;;;;;;27.25;16.38;;;;;;;;;;5089225;28;20399;-75
2022/05/24 07:27:12;;;;;;;25.75;16.92;;;;;;;;;;5102062;28;20066;-74
2022/05/24 07:29:38;;;;;;;22.77;15.85;;;;;;;;;;5106510;28;20398;-75
2022/05/24 07:32:13;;;;;;;26.13;17.00;;;;;;;;;;5089166;28;20036;-74
2022/05/24 07:34:40;;;;;;;25.48;16.70;;;;;;;;;;5098215;28;20070;-75
2022/05/24 07:37:07;;;;;;;25.83;17.30;;;;;;;;;;5095223;28;20156;-75
2022/05/24 07:39:33;;;;;;;23.77;16.98;;;;;;;;;;5109041;28;20490;-75
2022/05/24 07:47:21;;;;;;;26.20;16.35;;;;;;;;;;5092926;28;20050;-75
2022/05/24 07:49:47;;;;;;;24.58;15.63;;;;;;;;;;5112906;28;20042;-75
2022/05/24 07:52:13;;;;;;;23.13;15.68;;;;;;;;;;5104635;28;20032;-75
2022/05/24 07:54:40;;;;;;;23.00;15.70;;;;;;;;;;5104989;28;20036;-75
2022/05/24 07:57:10;;;;;;;20.55;15.13;;;;;;;;;;5110603;28;20054;-75
2022/05/24 07:59:37;;;;;;;21.70;14.82;;;;;;;;;;5092453;28;20040;-75
2022/05/24 08:02:04;;;;;;;21.45;15.73;;;;;;;;;;5092193;28;20052;-75
2022/05/24 08:04:30;;;;;;;26.40;15.98;;;;;;;;;;5104451;28;20043;-75
2022/05/24 08:06:57;;;;;;;25.00;14.98;;;;;;;;;;5095510;28;20127;-75
2022/05/24 08:09:23;;;;;;;21.83;14.52;;;;;;;;;;5082995;28;20036;-75
2022/05/24 08:11:49;;;;;;;19.98;14.02;;;;;;;;;;5092264;28;20105;-75
2022/05/24 08:14:15;;;;;;;24.52;15.65;;;;;;;;;;5091956;28;20082;-75
2022/05/24 08:16:42;;;;;;;23.73;15.10;;;;;;;;;;5102458;28;20750;-75
2022/05/24 08:19:08;;;;;;;23.38;14.32;;;;;;;;;;5108557;28;20139;-75
2022/05/24 08:21:35;;;;;;;22.73;15.68;;;;;;;;;;5074953;28;20044;-75
2022/05/24 08:24:01;;;;;;;22.40;14.65;;;;;;;;;;5103132;28;20058;-75
2022/05/24 08:26:27;;;;;;;22.30;14.02;;;;;;;;;;5096829;28;20081;-75
2022/05/24 08:28:53;;;;;;;22.50;15.25;;;;;;;;;;5108359;28;20042;-75
2022/05/24 08:31:20;;;;;;;23.77;15.38;;;;;;;;;;5098512;28;20454;-74
2022/05/24 08:33:47;;;;;;;20.05;14.10;;;;;;;;;;5101668;28;20036;-75
2022/05/24 08:36:13;;;;;;;23.45;14.32;;;;;;;;;;5091070;28;20075;-75
2022/05/24 08:38:40;;;;;;;20.65;15.15;;;;;;;;;;5093833;28;20511;-73
2022/05/24 08:41:10;;;;;;;22.65;15.90;;;;;;;;;;5105526;28;20047;-75
2022/05/24 08:43:45;;;;;;;19.20;13.57;;;;;;;;;;5101512;28;20039;-75
2022/05/24 08:49:14;;;;;;;20.20;14.30;;;;;;;;;;5083002;28;20047;-75
2022/05/24 08:51:50;;;;;;;22.23;14.40;;;;;;;;;;5082111;28;20123;-75
2022/05/24 08:54:17;;;;;;;21.92;13.55;;;;;;;;;;5108097;28;20691;-74
2022/05/24 08:56:47;;;;;;;18.17;11.98;;;;;;;;;;5096600;28;20040;-75
2022/05/24 08:59:18;;;;;;;16.33;11.60;;;;;;;;;;5074966;28;20399;-74
2022/05/24 09:01:45;;;;;;;22.23;12.07;;;;;;;;;;5105329;28;20046;-75
2022/05/24 09:04:12;;;;;;;16.98;10.98;;;;;;;;;;5077988;28;20048;-75
2022/05/24 09:06:41;;;;;;;20.83;13.05;;;;;;;;;;5106032;28;20123;-74
2022/05/24 09:09:10;;;;;;;16.67;11.80;;;;;;;;;;5084512;28;20036;-75
2022/05/24 09:11:46;;;;;;;19.13;12.13;;;;;;;;;;5111541;28;20047;-74
2022/05/24 09:14:12;;;;;;;16.05;10.95;;;;;;;;;;5111851;28;20113;-74
2022/05/24 09:16:48;;;;;;;16.00;11.35;;;;;;;;;;5104210;28;20071;-74
2022/05/24 09:19:14;;;;;;;16.55;10.50;;;;;;;;;;5087131;28;20043;-74
2022/05/24 09:21:43;;;;;;;17.00;9.40;;;;;;;;;;5094869;28;20043;-74
2022/05/24 09:24:28;;;;;;;13.63;9.30;;;;;;;;;;5111474;28;20043;-75
2022/05/24 09:26:54;;;;;;;;;;;;;;;;;;5100894;28;20050;-75
2022/05/24 09:29:20;;;;;;;16.13;8.55;;;;;;;;;;5090862;28;20006;-74
2022/05/24 09:31:49;;;;;;;15.02;8.60;;;;;;;;;;5107503;28;20551;-76
2022/05/24 09:34:19;;;;;;;11.82;7.38;;;;;;;;;;5097617;28;20443;-75
2022/05/24 09:36:52;;;;;;;11.35;6.93;;;;;;;;;;5100083;28;20052;-74
2022/05/24 09:39:27;;;;;;;11.93;7.68;;;;;;;;;;5089959;28;20857;-75
2022/05/24 09:42:04;;;;;;;11.27;5.22;;;;;;;;;;5106582;28;20047;-75
2022/05/24 09:44:47;;;;;;;6.53;1.77;;;;;;;;;;5100479;28;20116;-74
2022/05/24 09:47:31;;;;;;;4.40;1.20;;;;;;;;;;5090472;28;20523;-74
2022/05/24 09:50:16;;;;;;;2.97;1.05;;;;;;;;;;5089270;28;20353;-75
2022/05/24 09:52:46;;;;;;;6.15;1.20;;;;;;;;;;5102905;28;20051;-74
2022/05/24 09:55:22;;;;;;;4.65;1.30;;;;;;;;;;5090313;28;20059;-75
2022/05/24 09:57:48;;;;;;;4.18;1.20;;;;;;;;;;5093934;28;20042;-74
2022/05/24 10:00:20;;;;;;;5.07;1.35;;;;;;;;;;5095226;28;20111;-74
2022/05/24 10:02:46;;;;;;;2.85;1.30;;;;;;;;;;5089423;28;20093;-74
2022/05/24 10:05:19;;;;;;;7.22;1.73;;;;;;;;;;5103262;28;20055;-74
2022/05/24 10:08:05;;;;;;;4.25;1.63;;;;;;;;;;5076173;28;20519;-75
2022/05/24 10:10:35;;;;;;;2.10;1.50;;;;;;;;;;5102099;28;20062;-74
2022/05/24 10:13:08;;;;;;;5.60;1.40;;;;;;;;;;5091782;28;20074;-74
2022/05/24 10:15:39;;;;;;;4.38;1.90;;;;;;;;;;5085290;28;20043;-74
2022/05/24 10:18:11;;;;;;;3.97;1.90;;;;;;;;;;5078838;28;20040;-74
2022/05/24 10:20:49;;;;;;;7.45;2.22;;;;;;;;;;5087338;28;20250;-73
2022/05/24 10:23:34;;;;;;;4.95;2.20;;;;;;;;;;5073138;28;20126;-74
2022/05/24 10:26:00;;;;;;;;;;;;;;;;;;5100067;28;20394;-73
2022/05/24 10:28:32;;;;;;;5.60;3.30;;;;;;;;;;5092859;28;19916;-74
2022/05/24 10:30:58;;;;;;;7.18;3.97;;;;;;;;;;5104591;28;20051;-74
2022/05/24 10:39:26;;;;;;;10.68;4.28;;;;;;;;;;5079978;28;20285;-74
2022/05/24 10:42:19;;;;;;;9.52;2.92;;;;;;;;;;5095043;28;20054;-74
2022/05/24 10:44:45;;;;;;;7.95;2.03;;;;;;;;;;5066788;28;20043;-73
2022/05/24 10:47:21;;;;;;;7.40;2.40;;;;;;;;;;5099862;28;20125;-73
2022/05/24 10:50:02;;;;;;;7.40;1.88;;;;;;;;;;5100991;28;20108;-73
2022/05/24 10:52:34;;;;;;;6.50;1.50;;;;;;;;;;5091451;28;20089;-73
2022/05/24 10:55:17;;;;;;;3.95;1.20;;;;;;;;;;5093559;28;20461;-73
2022/05/24 10:57:49;;;;;;;4.75;1.50;;;;;;;;;;5080882;28;20040;-73
2022/05/24 11:00:19;;;;;;;4.45;1.50;;;;;;;;;;5103772;28;20063;-73
2022/05/24 11:02:50;;;;;;;7.32;1.42;;;;;;;;;;5093820;28;20039;-74
2022/05/24 11:05:26;;;;;;;4.65;1.45;;;;;;;;;;5093167;28;20036;-73
2022/05/24 11:07:55;;;;;;;4.00;1.58;;;;;;;;;;5069009;28;20047;-73
2022/05/24 11:10:35;;;;;;;4.00;1.70;;;;;;;;;;5053355;28;20047;-73
2022/05/24 11:13:09;;;;;;;4.05;1.75;;;;;;;;;;5075753;28;20040;-73
2022/05/24 11:15:47;;;;;;;4.43;1.95;;;;;;;;;;5073791;28;20036;-73
2022/05/24 11:18:16;;;;;;;5.20;2.33;;;;;;;;;;5087087;28;20039;-73
2022/05/24 11:20:45;;;;;;;5.65;2.83;;;;;;;;;;5098426;28;20038;-73
2022/05/24 11:23:15;;;;;;;7.60;3.40;;;;;;;;;;5091767;28;20562;-73
2022/05/24 11:25:43;;;;;;;6.63;3.25;;;;;;;;;;5092968;28;20123;-73
2022/05/24 11:28:21;;;;;;;7.78;3.42;;;;;;;;;;5102085;28;20043;-73
2022/05/24 11:30:48;;;;;;;7.13;3.72;;;;;;;;;;5066599;28;20544;-73
2022/05/24 11:33:17;;;;;;;8.18;4.68;;;;;;;;;;5079224;28;20035;-73
2022/05/24 11:35:45;;;;;;;8.18;4.63;;;;;;;;;;5073338;28;20075;-74
2022/05/24 11:38:17;;;;;;;9.18;5.13;;;;;;;;;;5100266;28;20048;-73
2022/05/24 11:40:57;;;;;;;11.50;5.30;;;;;;;;;;5096618;28;20392;-73
2022/05/24 11:43:36;;;;;;;9.75;5.75;;;;;;;;;;5103392;28;20400;-74
2022/05/24 11:46:07;;;;;;;9.77;6.13;;;;;;;;;;5093473;28;20096;-74
2022/05/24 11:48:50;;;;;;;11.68;6.10;;;;;;;;;;5079206;28;20059;-74
2022/05/24 11:51:36;;;;;;;9.70;6.00;;;;;;;;;;5086964;28;20111;-74
2022/05/24 11:54:04;;;;;;;8.52;5.45;;;;;;;;;;5082195;28;20036;-74
2022/05/24 11:56:30;;;;;;;10.15;6.18;;;;;;;;;;5099509;28;20079;-73
2022/05/24 11:58:58;;;;;;;10.82;6.10;;;;;;;;;;5091756;28;20390;-74
2022/05/24 12:01:24;;;;;;;9.23;5.20;;;;;;;;;;5103757;28;20248;-73
2022/05/24 12:10:01;;;;;;;8.73;4.85;;;;;;;;;;5080736;28;20044;-74
2022/05/24 12:12:38;;;;;;;8.02;4.07;;;;;;;;;;5076795;28;20223;-74
2022/05/24 12:15:16;;;;;;;8.27;4.45;;;;;;;;;;5102942;28;20077;-75
2022/05/24 12:17:43;;;;;;;7.60;3.80;;;;;;;;;;5089154;28;20419;-74
2022/05/24 12:20:28;;;;;;;5.18;3.13;;;;;;;;;;5098799;28;20036;-75
2022/05/24 12:23:07;;;;;;;8.93;3.55;;;;;;;;;;5088236;28;20505;-74
2022/05/24 12:25:55;;;;;;;9.50;3.72;;;;;;;;;;5097648;28;20050;-73
2022/05/24 12:28:23;;;;;;;8.48;3.13;;;;;;;;;;5095412;28;20518;-74
2022/05/24 12:30:51;;;;;;;5.30;2.95;;;;;;;;;;5106378;28;20036;-74
2022/05/24 12:33:23;;;;;;;7.28;3.30;;;;;;;;;;5080051;28;20031;-73
2022/05/24 12:35:51;;;;;;;5.00;2.97;;;;;;;;;;5098998;28;20063;-74
2022/05/24 12:38:19;;;;;;;7.32;3.28;;;;;;;;;;5088763;28;20384;-73
2022/05/24 12:40:45;;;;;;;4.18;2.60;;;;;;;;;;5076847;28;20413;-73
2022/05/24 12:43:17;;;;;;;5.57;2.15;;;;;;;;;;5102736;28;20071;-73
2022/05/24 12:45:44;;;;;;;4.53;1.95;;;;;;;;;;5102475;28;20086;-73
2022/05/24 12:48:25;;;;;;;4.53;1.88;;;;;;;;;;5076817;28;20340;-74
2022/05/24 12:50:58;;;;;;;6.15;2.03;;;;;;;;;;5080893;28;20039;-74
2022/05/24 12:53:24;;;;;;;5.25;1.38;;;;;;;;;;5099133;28;20047;-74
2022/05/24 12:56:20;;;;;;;6.97;1.40;;;;;;;;;;5090133;28;20047;-73
2022/05/24 12:58:47;;;;;;;2.45;1.30;;;;;;;;;;5080190;27;20266;-74
2022/05/24 13:01:13;;;;;;;5.38;1.90;;;;;;;;;;5099196;28;20407;-73
2022/05/24 13:04:03;;;;;;;5.28;2.13;;;;;;;;;;5072334;28;20040;-74
2022/05/24 13:06:31;;;;;;;3.20;1.58;;;;;;;;;;5072657;28;20519;-73
2022/05/24 13:09:18;;;;;;;3.88;1.85;;;;;;;;;;5098594;28;20067;-75
2022/05/24 13:11:46;;;;;;;6.88;2.28;;;;;;;;;;5093199;28;20036;-73
2022/05/24 13:14:18;;;;;;;5.70;2.10;;;;;;;;;;5088635;28;20040;-74
2022/05/24 13:16:45;;;;;;;6.20;2.38;;;;;;;;;;5097791;28;20039;-73
2022/05/24 13:19:11;;;;;;;7.38;3.20;;;;;;;;;;5096826;28;20519;-74
2022/05/24 13:21:38;;;;;;;9.95;3.97;;;;;;;;;;5105589;28;20376;-74
2022/05/24 13:24:12;;;;;;;7.30;3.08;;;;;;;;;;5093572;28;20044;-74
2022/05/24 13:26:57;;;;;;;7.15;3.53;;;;;;;;;;5100421;28;20043;-75
2022/05/24 13:29:24;;;;;;;6.13;2.50;;;;;;;;;;5087692;28;20043;-74
2022/05/24 13:34:36;;;;;;;6.97;2.50;;;;;;;;;;5099111;28;20080;-74
2022/05/24 13:37:06;;;;;;;5.88;2.50;;;;;;;;;;5101395;28;20072;-73
2022/05/24 13:39:39;;;;;;;5.60;2.50;;;;;;;;;;5092266;28;20040;-75
2022/05/24 13:42:05;;;;;;;6.18;2.42;;;;;;;;;;5085415;28;20044;-74
2022/05/24 13:44:33;;;;;;;7.07;2.75;;;;;;;;;;5099357;28;20043;-75
2022/05/24 13:47:04;;;;;;;7.53;3.15;;;;;;;;;;5094330;28;20556;-74
2022/05/24 13:49:30;;;;;;;5.32;3.10;;;;;;;;;;5088396;28;20166;-74
2022/05/24 13:52:15;;;;;;;8.13;3.30;;;;;;;;;;5095913;28;20046;-74
2022/05/24 13:54:41;;;;;;;;;;;;;;;;;;5074539;28;20404;-74
2022/05/24 13:57:19;;;;;;;16.95;4.82;;;;;;;;;;5086567;28;19923;-74
2022/05/24 13:59:55;;;;;;;7.25;3.38;;;;;;;;;;5102123;28;20036;-74
2022/05/24 14:02:24;;;;;;;5.63;2.60;;;;;;;;;;5100344;28;20055;-74
2022/05/24 14:04:50;;;;;;;5.45;2.80;;;;;;;;;;5075246;28;20180;-74
2022/05/24 14:07:18;;;;;;;4.55;3.00;;;;;;;;;;5104330;28;20036;-74
2022/05/24 14:09:44;;;;;;;6.70;3.42;;;;;;;;;;5087728;28;20132;-75
2022/05/24 14:12:10;;;;;;;8.15;3.83;;;;;;;;;;5088178;28;20086;-74
2022/05/24 14:14:37;;;;;;;7.78;3.80;;;;;;;;;;5103659;28;20387;-74
2022/05/24 14:17:07;;;;;;;6.70;3.15;;;;;;;;;;5073280;28;20040;-74
2022/05/24 14:19:33;;;;;;;7.10;3.78;;;;;;;;;;5085959;28;20051;-74
2022/05/24 14:22:00;;;;;;;9.00;4.13;;;;;;;;;;5088723;28;20177;-74
2022/05/24 14:24:28;;;;;;;8.05;4.60;;;;;;;;;;5100750;28;20507;-74
2022/05/24 14:26:56;;;;;;;9.80;6.18;;;;;;;;;;5098229;28;20132;-74
2022/05/24 14:29:23;;;;;;;10.73;5.78;;;;;;;;;;5087623;28;20036;-74
2022/05/24 14:31:51;;;;;;;13.07;6.47;;;;;;;;;;5099492;28;20061;-74
2022/05/24 14:34:18;;;;;;;9.02;5.93;;;;;;;;;;5106410;28;20050;-74
2022/05/24 14:36:44;;;;;;;11.25;6.43;;;;;;;;;;5070429;28;20044;-73
2022/05/24 14:39:11;;;;;;;10.52;6.72;;;;;;;;;;5095133;28;20044;-74
2022/05/24 14:41:38;;;;;;;11.43;7.13;;;;;;;;;;5096747;28;20066;-74
2022/05/24 14:44:09;;;;;;;11.65;7.20;;;;;;;;;;5086355;28;20126;-74
2022/05/24 14:46:51;;;;;;;11.23;6.82;;;;;;;;;;5090999;28;20632;-74
2022/05/24 14:49:17;;;;;;;12.10;7.00;;;;;;;;;;5098080;28;20036;-74
2022/05/24 14:51:51;;;;;;;11.40;7.35;;;;;;;;;;5101045;28;20312;-74
2022/05/24 14:54:18;;;;;;;11.25;6.70;;;;;;;;;;5072918;28;20104;-74
2022/05/24 14:56:46;;;;;;;10.77;6.38;;;;;;;;;;5086945;28;20051;-73
2022/05/24 14:59:12;;;;;;;9.98;5.93;;;;;;;;;;5093489;28;20036;-74
2022/05/24 15:01:40;;;;;;;10.95;6.22;;;;;;;;;;5101553;28;20039;-74
2022/05/24 15:04:07;;;;;;;10.60;5.80;;;;;;;;;;5090660;28;20507;-74
2022/05/24 15:06:37;;;;;;;7.63;4.80;;;;;;;;;;5101450;28;20086;-74
2022/05/24 15:17:34;;;;;;;;;;;;;;;;;;5101448;28;20039;-74
2022/05/24 15:20:08;;;;;;;12.20;5.75;;;;;;;;;;5091060;28;20401;-74
2022/05/24 15:22:37;;;;;;;7.95;4.70;;;;;;;;;;5075116;28;20489;-74
2022/05/24 15:25:05;;;;;;;10.45;5.43;;;;;;;;;;5082778;28;20043;-73
2022/05/24 15:27:31;;;;;;;11.07;5.57;;;;;;;;;;5090813;28;20036;-74